Jump to content

Sign in to follow this  
neil0311

ASX briefing using stale data

Recommended Posts

I can't seem to get current WX to load in ASX. Do I have something set incorrectly? This is what I get when loading a flight plan for a short local flight. Both reports are old data. Departure (KFIT): KFIT 051752Z AUTO 18013KT 8SM VCTS SCT041 BKN055 26/17 A2944 RMK AO2 LTG DSNT RMK INTERPOLATED*Enroute:No enroute stations imported from flight plan...Destination (KEEN): KEEN 092255Z AUTO 02004KT 5SM BKN041 OVC050 20/16 A2995 RMK AO1 RMK INTERPOLATED*No alternate station specified...My ASX.CFG below://ASX Configuration File[Options]AutomaticDownloads = TrueAutomaticDownloadInterval = 10CAVOKCloudGenerationPercent = 50NoDataCloudGenerationPercent = 50CirrusCloudGenerationPercent = 50MaximumCloudLayers = 5MinimumCloudTurbulencePercent = 0MaximumCloudTurbulencePercent = 100MinimumCloudIcingPercent = 0MaximumCloudIcingPercent = 100MaximumSurfaceWindSpeed = 100MinimumWindTurbulencePercent = 0MaximumWindTurbulencePercent = 100MinimumWindShearPercent = 0MaximumWindShearPercent = 50MinimumVisibilitySM = 0MaximumVisibilitySM = 41UpdateRange = 500DynamicRateofChangePercent = 50WakeTurbulenceStrength = 50DepictHurricanes = TrueCreateVirtualStations = TrueEnhanceRouteCoverage = TrueMaximumUpperVisibilitySM = 80VATSIMDownloads = FalseEnableSkyScapeMode = TrueUseSkyScapeforStratus = FalseStratusCloudOccurrencePercent = 20ForceHighPriority = False

Share this post


Link to post
Share on other sites

Just getting to trying it again after work and it looks fine tonight. I'm not sure if it was on my end or yours, but all's OK now. Thanks Jim.

Share this post


Link to post
Share on other sites

Join the conversation

You can post now and register later. If you have an account, sign in now to post with your account.
Note: Your post will require moderator approval before it will be visible.

Guest
Reply to this topic...

×   Pasted as rich text.   Paste as plain text instead

  Only 75 emoji are allowed.

×   Your link has been automatically embedded.   Display as a link instead

×   Your previous content has been restored.   Clear editor

×   You cannot paste images directly. Upload or insert images from URL.

Sign in to follow this  

×
×
  • Create New...